Armstrong, Iowa
Current Conditions -  °F | °C
As of 9:52 AM on Tuesday 21 Oct 2014 (Local Time) from KEST Reporting Station
Clear Clear  
Wind Chill: 44°   Ceiling: Unl
Heat Index: 47°   Visibility: 10mi
Dew Point: 42°   Wind: 6mph
Humidity: 83%   Direction: 160°SSE
Pressure: 30.15"   Gusts: NA
Location:  43.4°N, 94.48°W
Report Text: KEST 211452Z AUTO 16005KT 10SM CLR 08/06 A3015 RMK AO2 SLP216 T00830056 53006
Loading
Personal Weather Stations






























Interactive Weather Map New forecast layout! Learn more

10-Day Weather Forecast

Advertisements
Track Severe Weather on mobile